sensor_id;sensor_type;location;lat;lon;timestamp;pressure;altitude;pressure_sealevel;temperature;humidity
74794;BME280;63320;50.768;6.724;2023-04-24T00:01:43;98834.41;;;11.34;70.31
74794;BME280;63320;50.768;6.724;2023-04-24T00:04:09;98831.22;;;11.18;70.93
74794;BME280;63320;50.768;6.724;2023-04-24T00:06:35;98829.09;;;11.23;71.35
74794;BME280;63320;50.768;6.724;2023-04-24T00:09:00;98842.53;;;11.55;70.67
74794;BME280;63320;50.768;6.724;2023-04-24T00:11:26;98837.47;;;11.04;71.93
74794;BME280;63320;50.768;6.724;2023-04-24T00:13:51;98828.38;;;11.21;72.05
74794;BME280;63320;50.768;6.724;2023-04-24T00:16:18;98832.06;;;10.95;73.13
74794;BME280;63320;50.768;6.724;2023-04-24T00:18:43;98839.56;;;11.12;72.75
74794;BME280;63320;50.768;6.724;2023-04-24T00:21:08;98828.09;;;11.13;72.32
74794;BME280;63320;50.768;6.724;2023-04-24T00:23:34;98835.88;;;11.38;72.11
74794;BME280;63320;50.768;6.724;2023-04-24T00:25:59;98830.28;;;11.19;72.43
74794;BME280;63320;50.768;6.724;2023-04-24T00:28:24;98832.69;;;11.22;72.39
74794;BME280;63320;50.768;6.724;2023-04-24T00:30:50;98829.91;;;11.36;71.98
74794;BME280;63320;50.768;6.724;2023-04-24T00:33:17;98842.03;;;11.26;72.19
74794;BME280;63320;50.768;6.724;2023-04-24T00:35:42;98834.06;;;10.91;73.05
74794;BME280;63320;50.768;6.724;2023-04-24T00:38:07;98832.22;;;11.28;72.05
74794;BME280;63320;50.768;6.724;2023-04-24T00:40:33;98838.63;;;11.37;71.58
74794;BME280;63320;50.768;6.724;2023-04-24T00:42:58;98847.34;;;11.13;72.42
74794;BME280;63320;50.768;6.724;2023-04-24T00:45:23;98839.34;;;10.78;73.82
74794;BME280;63320;50.768;6.724;2023-04-24T00:47:49;98844.84;;;10.75;72.88
74794;BME280;63320;50.768;6.724;2023-04-24T00:50:18;98850.63;;;10.68;70.54
74794;BME280;63320;50.768;6.724;2023-04-24T00:52:43;98847.28;;;10.53;70.01
74794;BME280;63320;50.768;6.724;2023-04-24T00:55:09;98851.94;;;10.49;68.24
74794;BME280;63320;50.768;6.724;2023-04-24T00:57:34;98838.03;;;10.60;67.26
74794;BME280;63320;50.768;6.724;2023-04-24T01:00:00;98840.00;;;10.69;66.11
74794;BME280;63320;50.768;6.724;2023-04-24T01:02:25;98852.09;;;10.59;66.25
74794;BME280;63320;50.768;6.724;2023-04-24T01:04:51;98847.47;;;10.62;65.18
74794;BME280;63320;50.768;6.724;2023-04-24T01:07:19;98840.91;;;10.44;64.97
74794;BME280;63320;50.768;6.724;2023-04-24T01:09:45;98845.63;;;10.52;65.03
74794;BME280;63320;50.768;6.724;2023-04-24T01:12:12;98837.22;;;10.59;64.43
74794;BME280;63320;50.768;6.724;2023-04-24T01:14:37;98843.41;;;10.46;65.06
74794;BME280;63320;50.768;6.724;2023-04-24T01:17:03;98843.53;;;10.44;65.76
74794;BME280;63320;50.768;6.724;2023-04-24T01:19:28;98856.53;;;10.20;65.88
74794;BME280;63320;50.768;6.724;2023-04-24T01:21:58;98855.31;;;10.26;65.10
74794;BME280;63320;50.768;6.724;2023-04-24T01:24:25;98873.03;;;10.09;64.42
74794;BME280;63320;50.768;6.724;2023-04-24T01:26:50;98854.13;;;10.04;64.83
74794;BME280;63320;50.768;6.724;2023-04-24T01:29:16;98853.66;;;9.98;64.91
74794;BME280;63320;50.768;6.724;2023-04-24T01:31:41;98867.09;;;9.80;65.58
74794;BME280;63320;50.768;6.724;2023-04-24T01:34:06;98856.59;;;9.93;65.17
74794;BME280;63320;50.768;6.724;2023-04-24T01:36:32;98857.09;;;9.73;65.41
74794;BME280;63320;50.768;6.724;2023-04-24T01:38:59;98859.88;;;9.84;65.82
74794;BME280;63320;50.768;6.724;2023-04-24T01:41:26;98869.53;;;10.09;64.31
74794;BME280;63320;50.768;6.724;2023-04-24T01:43:51;98858.84;;;9.99;64.21
74794;BME280;63320;50.768;6.724;2023-04-24T01:46:17;98865.13;;;9.84;64.19
74794;BME280;63320;50.768;6.724;2023-04-24T01:48:44;98860.72;;;9.84;64.43
74794;BME280;63320;50.768;6.724;2023-04-24T01:51:09;98870.75;;;9.65;64.64
74794;BME280;63320;50.768;6.724;2023-04-24T01:53:35;98858.63;;;9.50;65.69
74794;BME280;63320;50.768;6.724;2023-04-24T01:56:01;98865.09;;;9.71;64.79
74794;BME280;63320;50.768;6.724;2023-04-24T01:58:27;98860.16;;;9.40;65.60
74794;BME280;63320;50.768;6.724;2023-04-24T02:00:56;98862.94;;;9.24;66.65
74794;BME280;63320;50.768;6.724;2023-04-24T02:03:21;98863.06;;;9.08;67.27
74794;BME280;63320;50.768;6.724;2023-04-24T02:05:46;98853.19;;;8.99;67.31
74794;BME280;63320;50.768;6.724;2023-04-24T02:08:12;98865.13;;;9.03;67.02
74794;BME280;63320;50.768;6.724;2023-04-24T02:10:37;98860.78;;;8.89;68.00
74794;BME280;63320;50.768;6.724;2023-04-24T02:13:02;98848.84;;;8.98;68.05
74794;BME280;63320;50.768;6.724;2023-04-24T02:15:29;98869.09;;;8.96;67.78
74794;BME280;63320;50.768;6.724;2023-04-24T02:17:54;98864.03;;;8.93;68.04
74794;BME280;63320;50.768;6.724;2023-04-24T02:20:20;98861.34;;;8.94;68.71
74794;BME280;63320;50.768;6.724;2023-04-24T02:22:45;98861.94;;;8.71;69.31
74794;BME280;63320;50.768;6.724;2023-04-24T02:25:10;98873.06;;;8.74;68.68
74794;BME280;63320;50.768;6.724;2023-04-24T02:27:36;98871.56;;;8.70;69.30
74794;BME280;63320;50.768;6.724;2023-04-24T02:30:01;98880.66;;;8.65;69.05
74794;BME280;63320;50.768;6.724;2023-04-24T02:32:28;98870.81;;;8.68;69.71
74794;BME280;63320;50.768;6.724;2023-04-24T02:34:53;98883.06;;;8.68;69.39
74794;BME280;63320;50.768;6.724;2023-04-24T02:37:19;98881.84;;;8.73;69.34
74794;BME280;63320;50.768;6.724;2023-04-24T02:39:44;98893.66;;;8.66;69.39
74794;BME280;63320;50.768;6.724;2023-04-24T02:42:09;98896.81;;;8.86;68.72
74794;BME280;63320;50.768;6.724;2023-04-24T02:44:35;98903.19;;;8.67;69.30
74794;BME280;63320;50.768;6.724;2023-04-24T02:47:00;98908.44;;;8.67;69.26
74794;BME280;63320;50.768;6.724;2023-04-24T02:49:27;98902.34;;;8.67;68.92
74794;BME280;63320;50.768;6.724;2023-04-24T02:51:52;98904.13;;;8.52;68.91
74794;BME280;63320;50.768;6.724;2023-04-24T02:54:17;98901.06;;;8.60;69.17
74794;BME280;63320;50.768;6.724;2023-04-24T02:56:43;98897.97;;;8.67;68.17
74794;BME280;63320;50.768;6.724;2023-04-24T02:59:08;98900.50;;;8.69;68.24
74794;BME280;63320;50.768;6.724;2023-04-24T03:01:33;98909.09;;;8.71;68.53
74794;BME280;63320;50.768;6.724;2023-04-24T03:03:59;98920.97;;;8.48;69.08
74794;BME280;63320;50.768;6.724;2023-04-24T03:06:25;98922.56;;;8.50;69.26
74794;BME280;63320;50.768;6.724;2023-04-24T03:08:51;98916.97;;;8.56;69.07
74794;BME280;63320;50.768;6.724;2023-04-24T03:11:16;98918.91;;;8.67;68.66
74794;BME280;63320;50.768;6.724;2023-04-24T03:13:41;98921.53;;;8.67;68.29
74794;BME280;63320;50.768;6.724;2023-04-24T03:16:07;98926.31;;;8.75;68.68
74794;BME280;63320;50.768;6.724;2023-04-24T03:18:32;98918.38;;;8.76;68.71
74794;BME280;63320;50.768;6.724;2023-04-24T03:20:57;98925.22;;;8.65;69.26
74794;BME280;63320;50.768;6.724;2023-04-24T03:23:24;98909.84;;;8.73;68.93
74794;BME280;63320;50.768;6.724;2023-04-24T03:25:49;98906.22;;;9.17;67.66
74794;BME280;63320;50.768;6.724;2023-04-24T03:28:15;98899.19;;;9.17;67.35
74794;BME280;63320;50.768;6.724;2023-04-24T03:30:40;98895.28;;;9.10;68.07
74794;BME280;63320;50.768;6.724;2023-04-24T03:33:05;98896.56;;;9.17;67.25
74794;BME280;63320;50.768;6.724;2023-04-24T03:35:31;98907.31;;;8.86;67.79
74794;BME280;63320;50.768;6.724;2023-04-24T03:37:56;98904.84;;;9.11;67.09
74794;BME280;63320;50.768;6.724;2023-04-24T03:40:23;98896.97;;;9.11;67.59
74794;BME280;63320;50.768;6.724;2023-04-24T03:42:48;98905.22;;;9.19;66.96
74794;BME280;63320;50.768;6.724;2023-04-24T03:45:13;98920.31;;;8.87;68.59
74794;BME280;63320;50.768;6.724;2023-04-24T03:47:39;98918.84;;;8.69;69.47
74794;BME280;63320;50.768;6.724;2023-04-24T03:50:05;98911.63;;;8.72;69.98
74794;BME280;63320;50.768;6.724;2023-04-24T03:52:30;98919.84;;;8.66;69.62
74794;BME280;63320;50.768;6.724;2023-04-24T03:54:56;98915.66;;;8.64;70.24
74794;BME280;63320;50.768;6.724;2023-04-24T03:57:22;98916.41;;;8.94;68.80
74794;BME280;63320;50.768;6.724;2023-04-24T03:59:48;98909.91;;;9.14;68.22
74794;BME280;63320;50.768;6.724;2023-04-24T04:02:13;98914.78;;;9.06;68.52
74794;BME280;63320;50.768;6.724;2023-04-24T04:04:38;98906.53;;;8.98;69.38
74794;BME280;63320;50.768;6.724;2023-04-24T04:07:04;98906.44;;;9.14;69.09
74794;BME280;63320;50.768;6.724;2023-04-24T04:09:29;98911.88;;;9.11;69.28
74794;BME280;63320;50.768;6.724;2023-04-24T04:11:54;98914.09;;;9.17;68.27
74794;BME280;63320;50.768;6.724;2023-04-24T04:14:21;98907.75;;;9.33;67.97
74794;BME280;63320;50.768;6.724;2023-04-24T04:16:46;98903.81;;;9.41;68.03
74794;BME280;63320;50.768;6.724;2023-04-24T04:19:12;98910.19;;;9.10;68.89
74794;BME280;63320;50.768;6.724;2023-04-24T04:21:37;98911.50;;;9.02;69.43
74794;BME280;63320;50.768;6.724;2023-04-24T04:24:02;98916.94;;;8.99;69.42
74794;BME280;63320;50.768;6.724;2023-04-24T04:26:28;98923.31;;;8.81;70.15
74794;BME280;63320;50.768;6.724;2023-04-24T04:28:53;98920.19;;;9.03;69.92
74794;BME280;63320;50.768;6.724;2023-04-24T04:31:20;98935.97;;;8.89;69.86
74794;BME280;63320;50.768;6.724;2023-04-24T04:33:45;98928.44;;;9.11;69.73
74794;BME280;63320;50.768;6.724;2023-04-24T04:36:10;98921.63;;;8.94;69.83
74794;BME280;63320;50.768;6.724;2023-04-24T04:38:36;98914.50;;;9.11;69.51
74794;BME280;63320;50.768;6.724;2023-04-24T04:41:01;98921.16;;;9.02;69.13
74794;BME280;63320;50.768;6.724;2023-04-24T04:43:26;98918.13;;;9.08;69.54
74794;BME280;63320;50.768;6.724;2023-04-24T04:45:52;98920.31;;;9.01;68.99
74794;BME280;63320;50.768;6.724;2023-04-24T04:48:18;98916.78;;;9.29;68.00
74794;BME280;63320;50.768;6.724;2023-04-24T04:50:44;98917.56;;;9.17;68.38
74794;BME280;63320;50.768;6.724;2023-04-24T04:53:09;98922.47;;;8.95;69.18
74794;BME280;63320;50.768;6.724;2023-04-24T04:55:35;98925.44;;;9.03;69.60
74794;BME280;63320;50.768;6.724;2023-04-24T04:58:00;98932.41;;;8.75;70.25
74794;BME280;63320;50.768;6.724;2023-04-24T05:00:26;98933.69;;;8.68;70.87
74794;BME280;63320;50.768;6.724;2023-04-24T05:02:51;98923.84;;;9.15;69.44
74794;BME280;63320;50.768;6.724;2023-04-24T05:05:18;98919.88;;;9.22;68.47
74794;BME280;63320;50.768;6.724;2023-04-24T05:07:43;98924.22;;;9.50;68.06
74794;BME280;63320;50.768;6.724;2023-04-24T05:10:09;98935.00;;;9.45;68.17
74794;BME280;63320;50.768;6.724;2023-04-24T05:12:34;98930.31;;;9.50;68.01
74794;BME280;63320;50.768;6.724;2023-04-24T05:15:00;98920.00;;;9.47;67.93
74794;BME280;63320;50.768;6.724;2023-04-24T05:17:25;98923.72;;;9.30;68.19
74794;BME280;63320;50.768;6.724;2023-04-24T05:19:50;98934.34;;;9.69;67.41
74794;BME280;63320;50.768;6.724;2023-04-24T05:22:17;98934.69;;;9.64;67.10
74794;BME280;63320;50.768;6.724;2023-04-24T05:24:42;98940.66;;;9.39;67.65
74794;BME280;63320;50.768;6.724;2023-04-24T05:27:08;98946.88;;;9.24;68.16
74794;BME280;63320;50.768;6.724;2023-04-24T05:29:33;98945.09;;;9.24;67.69
74794;BME280;63320;50.768;6.724;2023-04-24T05:31:59;98955.50;;;8.97;69.22
74794;BME280;63320;50.768;6.724;2023-04-24T05:34:24;98963.19;;;9.15;69.24
74794;BME280;63320;50.768;6.724;2023-04-24T05:36:50;98966.44;;;9.18;68.99
74794;BME280;63320;50.768;6.724;2023-04-24T05:39:17;98964.97;;;9.14;69.01
74794;BME280;63320;50.768;6.724;2023-04-24T05:41:42;98975.75;;;9.10;69.08
74794;BME280;63320;50.768;6.724;2023-04-24T05:44:08;98984.16;;;9.00;69.95
74794;BME280;63320;50.768;6.724;2023-04-24T05:46:34;98984.72;;;9.05;69.81
74794;BME280;63320;50.768;6.724;2023-04-24T05:48:59;98986.13;;;8.97;70.37
74794;BME280;63320;50.768;6.724;2023-04-24T05:51:24;98986.69;;;8.88;71.57
74794;BME280;63320;50.768;6.724;2023-04-24T05:53:50;99000.06;;;8.83;71.92
74794;BME280;63320;50.768;6.724;2023-04-24T05:56:16;98992.47;;;8.78;71.93
74794;BME280;63320;50.768;6.724;2023-04-24T05:58:42;98986.31;;;8.79;72.02
74794;BME280;63320;50.768;6.724;2023-04-24T06:01:07;98993.72;;;8.87;72.21
74794;BME280;63320;50.768;6.724;2023-04-24T06:03:33;98992.69;;;8.90;70.44
74794;BME280;63320;50.768;6.724;2023-04-24T06:05:58;98992.97;;;8.85;70.72
74794;BME280;63320;50.768;6.724;2023-04-24T06:08:24;98997.94;;;8.90;70.79
74794;BME280;63320;50.768;6.724;2023-04-24T06:10:49;98986.13;;;8.97;70.51
74794;BME280;63320;50.768;6.724;2023-04-24T06:13:16;98994.38;;;8.76;71.44
74794;BME280;63320;50.768;6.724;2023-04-24T06:15:41;98994.28;;;8.92;70.55
74794;BME280;63320;50.768;6.724;2023-04-24T06:18:07;98988.97;;;8.94;70.74
74794;BME280;63320;50.768;6.724;2023-04-24T06:20:33;99010.47;;;8.70;71.92
74794;BME280;63320;50.768;6.724;2023-04-24T06:22:58;99016.97;;;8.63;71.94
74794;BME280;63320;50.768;6.724;2023-04-24T06:25:25;99025.78;;;8.62;72.29
74794;BME280;63320;50.768;6.724;2023-04-24T06:27:50;99009.69;;;8.54;72.82
74794;BME280;63320;50.768;6.724;2023-04-24T06:30:17;99023.19;;;8.76;72.27
74794;BME280;63320;50.768;6.724;2023-04-24T06:32:42;99015.50;;;8.59;72.67
74794;BME280;63320;50.768;6.724;2023-04-24T06:35:08;99012.47;;;8.51;73.82
74794;BME280;63320;50.768;6.724;2023-04-24T06:37:33;99014.56;;;8.60;73.14
74794;BME280;63320;50.768;6.724;2023-04-24T06:39:59;99011.91;;;8.46;74.21
74794;BME280;63320;50.768;6.724;2023-04-24T06:42:24;99032.19;;;8.42;73.87
74794;BME280;63320;50.768;6.724;2023-04-24T06:44:49;99042.16;;;8.36;74.50
74794;BME280;63320;50.768;6.724;2023-04-24T06:47:16;99032.63;;;8.35;74.43
74794;BME280;63320;50.768;6.724;2023-04-24T06:49:42;99029.50;;;8.44;75.10
74794;BME280;63320;50.768;6.724;2023-04-24T06:52:07;99037.72;;;8.22;75.34
74794;BME280;63320;50.768;6.724;2023-04-24T06:54:33;99031.09;;;8.30;75.75
74794;BME280;63320;50.768;6.724;2023-04-24T06:56:59;99037.69;;;8.38;76.61
74794;BME280;63320;50.768;6.724;2023-04-24T06:59:25;99027.06;;;8.25;77.31
74794;BME280;63320;50.768;6.724;2023-04-24T07:01:50;99037.72;;;8.22;77.25
74794;BME280;63320;50.768;6.724;2023-04-24T07:04:17;99043.03;;;8.20;77.86
74794;BME280;63320;50.768;6.724;2023-04-24T07:06:42;99055.03;;;8.24;77.82
74794;BME280;63320;50.768;6.724;2023-04-24T07:09:08;99036.34;;;8.30;76.66
74794;BME280;63320;50.768;6.724;2023-04-24T07:11:33;99045.78;;;8.33;76.46
74794;BME280;63320;50.768;6.724;2023-04-24T07:13:58;99034.25;;;8.37;77.27
74794;BME280;63320;50.768;6.724;2023-04-24T07:16:24;99047.25;;;8.23;77.62
74794;BME280;63320;50.768;6.724;2023-04-24T07:18:49;99045.56;;;8.22;77.71
74794;BME280;63320;50.768;6.724;2023-04-24T07:21:16;99048.94;;;8.40;77.00
74794;BME280;63320;50.768;6.724;2023-04-24T07:23:41;99061.44;;;8.35;76.92
74794;BME280;63320;50.768;6.724;2023-04-24T07:26:06;99069.59;;;8.14;78.91
74794;BME280;63320;50.768;6.724;2023-04-24T07:28:32;99061.44;;;8.35;78.64
74794;BME280;63320;50.768;6.724;2023-04-24T07:30:57;99068.19;;;8.23;79.57
74794;BME280;63320;50.768;6.724;2023-04-24T07:33:23;99080.66;;;8.03;80.49
74794;BME280;63320;50.768;6.724;2023-04-24T07:35:48;99067.44;;;8.21;80.38
74794;BME280;63320;50.768;6.724;2023-04-24T07:38:15;99091.13;;;8.03;80.88
74794;BME280;63320;50.768;6.724;2023-04-24T07:40:40;99090.25;;;8.03;81.93
74794;BME280;63320;50.768;6.724;2023-04-24T07:43:05;99090.53;;;7.83;80.77
74794;BME280;63320;50.768;6.724;2023-04-24T07:45:31;99102.28;;;7.75;80.26
74794;BME280;63320;50.768;6.724;2023-04-24T07:47:56;99109.78;;;7.82;81.19
74794;BME280;63320;50.768;6.724;2023-04-24T07:50:22;99104.28;;;7.70;81.70
74794;BME280;63320;50.768;6.724;2023-04-24T07:52:47;99150.97;;;7.78;82.42
74794;BME280;63320;50.768;6.724;2023-04-24T07:55:14;99127.41;;;7.62;82.10
74794;BME280;63320;50.768;6.724;2023-04-24T07:57:39;99122.69;;;7.53;82.15
74794;BME280;63320;50.768;6.724;2023-04-24T08:00:05;99118.00;;;7.42;82.50
74794;BME280;63320;50.768;6.724;2023-04-24T08:02:31;99132.44;;;7.49;83.76
74794;BME280;63320;50.768;6.724;2023-04-24T08:04:57;99149.06;;;7.48;82.41
74794;BME280;63320;50.768;6.724;2023-04-24T08:07:23;99121.28;;;7.79;82.48
74794;BME280;63320;50.768;6.724;2023-04-24T08:09:48;99140.50;;;7.78;82.23
74794;BME280;63320;50.768;6.724;2023-04-24T08:12:15;99160.00;;;7.72;82.53
74794;BME280;63320;50.768;6.724;2023-04-24T08:14:40;99160.66;;;7.60;82.81
74794;BME280;63320;50.768;6.724;2023-04-24T08:17:06;99184.84;;;7.31;83.88
74794;BME280;63320;50.768;6.724;2023-04-24T08:19:31;99188.88;;;7.20;83.85
74794;BME280;63320;50.768;6.724;2023-04-24T08:21:57;99176.09;;;6.97;84.26
74794;BME280;63320;50.768;6.724;2023-04-24T08:24:22;99197.41;;;6.89;85.30
74794;BME280;63320;50.768;6.724;2023-04-24T08:26:47;99221.75;;;6.90;85.26
74794;BME280;63320;50.768;6.724;2023-04-24T08:29:14;99211.63;;;6.84;85.14
74794;BME280;63320;50.768;6.724;2023-04-24T08:31:39;99207.28;;;6.83;84.87
74794;BME280;63320;50.768;6.724;2023-04-24T08:34:05;99204.00;;;6.79;86.14
74794;BME280;63320;50.768;6.724;2023-04-24T08:36:31;99209.91;;;6.83;87.19
74794;BME280;63320;50.768;6.724;2023-04-24T08:38:56;99214.28;;;6.82;86.58
74794;BME280;63320;50.768;6.724;2023-04-24T08:41:22;99220.84;;;6.91;86.38
74794;BME280;63320;50.768;6.724;2023-04-24T08:43:47;99229.91;;;6.84;86.58
74794;BME280;63320;50.768;6.724;2023-04-24T08:46:15;99219.50;;;6.82;86.42
74794;BME280;63320;50.768;6.724;2023-04-24T08:48:40;99236.84;;;7.19;87.27
74794;BME280;63320;50.768;6.724;2023-04-24T08:51:07;99224.47;;;7.06;87.00
74794;BME280;63320;50.768;6.724;2023-04-24T08:53:32;99237.22;;;7.12;87.42
74794;BME280;63320;50.768;6.724;2023-04-24T08:55:58;99242.84;;;7.21;87.49
74794;BME280;63320;50.768;6.724;2023-04-24T08:58:25;99242.84;;;7.21;87.80
74794;BME280;63320;50.768;6.724;2023-04-24T09:00:50;99242.06;;;7.54;88.00
74794;BME280;63320;50.768;6.724;2023-04-24T09:03:17;99247.06;;;7.41;88.13
74794;BME280;63320;50.768;6.724;2023-04-24T09:05:47;99247.13;;;7.22;88.74
74794;BME280;63320;50.768;6.724;2023-04-24T09:08:13;99250.53;;;7.24;88.21
74794;BME280;63320;50.768;6.724;2023-04-24T09:10:40;99256.84;;;7.20;88.22
74794;BME280;63320;50.768;6.724;2023-04-24T09:13:06;99265.47;;;7.40;88.45
74794;BME280;63320;50.768;6.724;2023-04-24T09:15:31;99270.84;;;7.37;88.40
74794;BME280;63320;50.768;6.724;2023-04-24T09:17:57;99280.69;;;7.32;88.00
74794;BME280;63320;50.768;6.724;2023-04-24T09:20:23;99287.47;;;7.18;87.49
74794;BME280;63320;50.768;6.724;2023-04-24T09:22:53;99284.28;;;7.12;87.70
74794;BME280;63320;50.768;6.724;2023-04-24T09:25:18;99275.75;;;7.25;87.55
74794;BME280;63320;50.768;6.724;2023-04-24T09:27:45;99290.13;;;7.17;87.66
74794;BME280;63320;50.768;6.724;2023-04-24T09:30:11;99289.38;;;7.15;88.02
74794;BME280;63320;50.768;6.724;2023-04-24T09:32:36;99287.53;;;7.34;87.67
74794;BME280;63320;50.768;6.724;2023-04-24T09:35:07;99296.53;;;7.29;87.71
74794;BME280;63320;50.768;6.724;2023-04-24T09:37:36;99300.38;;;7.39;87.35
74794;BME280;63320;50.768;6.724;2023-04-24T09:40:09;99311.13;;;7.33;87.67
74794;BME280;63320;50.768;6.724;2023-04-24T09:42:34;99315.59;;;7.31;87.56
74794;BME280;63320;50.768;6.724;2023-04-24T09:45:00;99322.06;;;7.41;87.04
74794;BME280;63320;50.768;6.724;2023-04-24T09:47:25;99322.78;;;7.44;87.89
74794;BME280;63320;50.768;6.724;2023-04-24T09:49:50;99326.84;;;7.50;88.19
74794;BME280;63320;50.768;6.724;2023-04-24T09:52:22;99343.47;;;7.49;88.24
74794;BME280;63320;50.768;6.724;2023-04-24T09:54:53;99336.22;;;7.71;87.60
74794;BME280;63320;50.768;6.724;2023-04-24T09:57:19;99343.22;;;7.36;87.64
74794;BME280;63320;50.768;6.724;2023-04-24T09:59:45;99346.69;;;7.37;88.28
74794;BME280;63320;50.768;6.724;2023-04-24T10:02:17;99337.91;;;7.38;88.04
74794;BME280;63320;50.768;6.724;2023-04-24T10:04:54;99343.44;;;7.32;88.06
74794;BME280;63320;50.768;6.724;2023-04-24T10:07:19;99343.09;;;7.39;88.32
74794;BME280;63320;50.768;6.724;2023-04-24T10:09:45;99349.31;;;7.54;88.18
74794;BME280;63320;50.768;6.724;2023-04-24T10:12:12;99355.41;;;7.55;88.34
74794;BME280;63320;50.768;6.724;2023-04-24T10:14:38;99343.38;;;7.68;87.85
74794;BME280;63320;50.768;6.724;2023-04-24T10:17:04;99345.72;;;7.74;86.58
74794;BME280;63320;50.768;6.724;2023-04-24T10:19:30;99349.38;;;7.87;87.53
74794;BME280;63320;50.768;6.724;2023-04-24T10:21:57;99364.78;;;7.76;85.89
74794;BME280;63320;50.768;6.724;2023-04-24T10:24:23;99366.88;;;7.69;85.54
74794;BME280;63320;50.768;6.724;2023-04-24T10:26:48;99352.78;;;7.72;85.26
74794;BME280;63320;50.768;6.724;2023-04-24T10:29:17;99360.09;;;8.00;86.52
74794;BME280;63320;50.768;6.724;2023-04-24T10:31:43;99359.53;;;8.11;86.57
74794;BME280;63320;50.768;6.724;2023-04-24T10:34:09;99365.00;;;8.23;86.57
74794;BME280;63320;50.768;6.724;2023-04-24T10:36:38;99372.91;;;8.22;85.68
74794;BME280;63320;50.768;6.724;2023-04-24T10:39:08;99365.47;;;8.14;86.33
74794;BME280;63320;50.768;6.724;2023-04-24T10:41:36;99364.00;;;8.09;86.37
74794;BME280;63320;50.768;6.724;2023-04-24T10:44:05;99367.72;;;8.04;85.42
74794;BME280;63320;50.768;6.724;2023-04-24T10:46:32;99369.13;;;8.27;85.60
74794;BME280;63320;50.768;6.724;2023-04-24T10:48:58;99380.28;;;8.48;84.90
74794;BME280;63320;50.768;6.724;2023-04-24T10:51:24;99367.63;;;8.88;84.87
74794;BME280;63320;50.768;6.724;2023-04-24T10:53:50;99367.06;;;8.99;83.63
74794;BME280;63320;50.768;6.724;2023-04-24T10:56:16;99378.13;;;8.88;82.52
74794;BME280;63320;50.768;6.724;2023-04-24T10:58:43;99388.03;;;8.99;82.19
74794;BME280;63320;50.768;6.724;2023-04-24T11:01:09;99401.47;;;8.93;80.83
74794;BME280;63320;50.768;6.724;2023-04-24T11:03:54;99402.97;;;8.65;80.45
74794;BME280;63320;50.768;6.724;2023-04-24T11:06:28;99391.50;;;8.84;81.14
74794;BME280;63320;50.768;6.724;2023-04-24T11:09:01;99394.13;;;9.15;81.36
74794;BME280;63320;50.768;6.724;2023-04-24T11:11:28;99411.97;;;9.40;79.20
74794;BME280;63320;50.768;6.724;2023-04-24T11:14:07;99396.72;;;9.47;77.43
74794;BME280;63320;50.768;6.724;2023-04-24T11:16:35;99437.34;;;9.55;76.17
74794;BME280;63320;50.768;6.724;2023-04-24T11:19:04;99394.00;;;9.48;75.02
74794;BME280;63320;50.768;6.724;2023-04-24T11:21:40;99401.31;;;9.73;76.91
74794;BME280;63320;50.768;6.724;2023-04-24T11:24:23;99403.81;;;9.91;73.62
74794;BME280;63320;50.768;6.724;2023-04-24T11:26:50;99420.00;;;9.83;73.71
74794;BME280;63320;50.768;6.724;2023-04-24T11:29:16;99406.63;;;9.88;75.19
74794;BME280;63320;50.768;6.724;2023-04-24T11:31:44;99414.31;;;9.91;75.79
74794;BME280;63320;50.768;6.724;2023-04-24T11:34:13;99414.31;;;9.91;76.20
74794;BME280;63320;50.768;6.724;2023-04-24T11:36:39;99440.63;;;9.75;74.25
74794;BME280;63320;50.768;6.724;2023-04-24T11:39:05;99415.25;;;9.59;74.68
74794;BME280;63320;50.768;6.724;2023-04-24T11:41:30;99423.88;;;9.62;75.23
74794;BME280;63320;50.768;6.724;2023-04-24T11:43:56;99415.91;;;9.63;75.35
74794;BME280;63320;50.768;6.724;2023-04-24T11:46:21;99424.78;;;9.76;75.44
74794;BME280;63320;50.768;6.724;2023-04-24T11:48:46;99432.34;;;9.67;73.71
74794;BME280;63320;50.768;6.724;2023-04-24T11:51:13;99430.56;;;9.51;75.33
74794;BME280;63320;50.768;6.724;2023-04-24T11:53:39;99428.63;;;9.55;77.01
74794;BME280;63320;50.768;6.724;2023-04-24T11:56:04;99433.94;;;9.53;78.01
74794;BME280;63320;50.768;6.724;2023-04-24T11:58:34;99446.16;;;9.39;77.21
74794;BME280;63320;50.768;6.724;2023-04-24T12:00:59;99435.41;;;9.59;77.79
74794;BME280;63320;50.768;6.724;2023-04-24T12:03:25;99453.84;;;9.57;76.09
74794;BME280;63320;50.768;6.724;2023-04-24T12:05:50;99436.28;;;10.04;76.78
74794;BME280;63320;50.768;6.724;2023-04-24T12:08:28;99459.19;;;10.02;75.25
74794;BME280;63320;50.768;6.724;2023-04-24T12:10:53;99444.94;;;10.06;75.14
74794;BME280;63320;50.768;6.724;2023-04-24T12:13:19;99451.63;;;10.11;75.32
74794;BME280;63320;50.768;6.724;2023-04-24T12:15:44;99452.72;;;10.07;73.48
74794;BME280;63320;50.768;6.724;2023-04-24T12:18:11;99471.41;;;10.33;72.54
74794;BME280;63320;50.768;6.724;2023-04-24T12:20:37;99464.88;;;10.54;72.23
74794;BME280;63320;50.768;6.724;2023-04-24T12:23:02;99461.78;;;10.62;69.57
74794;BME280;63320;50.768;6.724;2023-04-24T12:25:30;99453.34;;;10.85;67.39
74794;BME280;63320;50.768;6.724;2023-04-24T12:28:09;99466.28;;;11.03;66.80
74794;BME280;63320;50.768;6.724;2023-04-24T12:30:39;99460.34;;;11.28;67.70
74794;BME280;63320;50.768;6.724;2023-04-24T12:33:05;99462.19;;;10.84;65.25
74794;BME280;63320;50.768;6.724;2023-04-24T12:35:31;99459.44;;;10.86;66.30
74794;BME280;63320;50.768;6.724;2023-04-24T12:38:05;99459.84;;;10.80;67.48
74794;BME280;63320;50.768;6.724;2023-04-24T12:40:32;99453.91;;;10.91;67.91
74794;BME280;63320;50.768;6.724;2023-04-24T12:42:57;99487.81;;;10.95;66.84
74794;BME280;63320;50.768;6.724;2023-04-24T12:45:23;99465.44;;;10.88;66.06
74794;BME280;63320;50.768;6.724;2023-04-24T12:47:48;99461.03;;;10.74;64.60
74794;BME280;63320;50.768;6.724;2023-04-24T12:50:15;99472.97;;;10.80;63.69
74794;BME280;63320;50.768;6.724;2023-04-24T12:52:41;99471.66;;;10.87;63.63
74794;BME280;63320;50.768;6.724;2023-04-24T12:55:07;99471.94;;;10.97;63.01
74794;BME280;63320;50.768;6.724;2023-04-24T12:57:35;99466.88;;;11.49;64.66
74794;BME280;63320;50.768;6.724;2023-04-24T13:00:00;99489.97;;;11.58;64.01
74794;BME280;63320;50.768;6.724;2023-04-24T13:02:28;99481.97;;;11.19;64.32
74794;BME280;63320;50.768;6.724;2023-04-24T13:04:54;99471.13;;;11.37;67.78